Time;durP1;ratioP1;P1;durP2;ratioP2;P2;SDS_P1;SDS_P2;PMS_P1;PMS_P2;Temp;Humidity;BMP_temperature;BMP_pressure;BME280_temperature;BME280_humidity;BME280_pressure;Samples;Min_cycle;Max_cycle;Signal;HPM_P1;HPM_P2
2023/01/09 00:01:24;;;;;;;0.70;0.70;;;5.60;77.70;;;4.56;66.15;93651.50;5015670;28;20637;-35
2023/01/09 00:03:51;;;;;;;0.70;0.70;;;5.60;77.90;;;4.58;66.27;93644.34;5015820;28;20189;-35
2023/01/09 00:06:18;;;;;;;0.70;0.70;;;5.60;77.80;;;4.57;66.61;93640.16;5015847;28;20198;-35
2023/01/09 00:08:45;;;;;;;0.70;0.70;;;5.60;77.80;;;4.61;66.20;93633.56;5015830;28;20198;-35
2023/01/09 00:11:12;;;;;;;0.70;0.70;;;5.60;77.80;;;4.62;66.29;93640.38;5015604;28;20637;-35
2023/01/09 00:13:39;;;;;;;0.70;0.70;;;5.60;77.80;;;4.65;66.15;93633.03;5015715;28;20201;-35
2023/01/09 00:16:07;;;;;;;0.70;0.70;;;5.70;77.80;;;4.62;66.53;93624.81;5015649;28;20260;-35
2023/01/09 00:18:36;;;;;;;0.70;0.70;;;5.70;77.90;;;4.69;66.16;93624.84;4998708;28;20212;-35
2023/01/09 00:21:08;;;;;;;0.70;0.70;;;5.70;77.90;;;4.71;66.14;93621.09;5015721;28;20215;-36
2023/01/09 00:23:35;;;;;;;0.70;0.70;;;5.70;77.90;;;4.74;66.13;93607.72;5015852;28;20190;-36
2023/01/09 00:26:18;;;;;;;0.70;0.70;;;5.70;77.90;;;4.77;66.47;93604.75;5015465;28;20229;-35
2023/01/09 00:28:48;;;;;;;0.70;0.70;;;5.70;77.90;;;4.79;66.41;93602.75;5015710;28;20251;-35
2023/01/09 00:31:17;;;;;;;0.80;0.80;;;5.80;77.90;;;4.80;66.29;93600.97;5014604;28;20628;-35
2023/01/09 00:33:58;;;;;;;0.70;0.70;;;5.80;77.80;;;4.84;66.02;93597.00;5015455;28;20567;-36
2023/01/09 00:36:26;;;;;;;0.70;0.70;;;5.80;77.80;;;4.86;66.03;93589.00;4998348;28;20185;-36
2023/01/09 00:38:53;;;;;;;0.70;0.70;;;5.80;77.80;;;4.87;66.13;93588.03;5015265;28;20275;-35
2023/01/09 00:41:26;;;;;;;0.80;0.80;;;5.90;77.80;;;4.87;66.01;93570.66;5014848;28;20212;-35
2023/01/09 00:44:06;;;;;;;0.70;0.70;;;5.90;77.80;;;4.85;66.05;93570.03;4998160;28;20617;-35
2023/01/09 00:46:39;;;;;;;0.80;0.80;;;5.90;77.80;;;4.85;65.89;93567.44;5015373;28;20239;-35
2023/01/09 00:49:08;;;;;;;0.80;0.80;;;5.90;77.70;;;4.84;65.91;93573.63;5015470;28;20605;-36
2023/01/09 00:51:37;;;;;;;0.70;0.70;;;5.90;77.70;;;4.84;65.70;93578.81;5030575;28;20208;-36
2023/01/09 00:54:04;;;;;;;0.80;0.80;;;5.90;77.70;;;4.86;65.70;93570.81;5015311;28;20201;-39
2023/01/09 00:56:34;;;;;;;0.65;0.65;;;5.90;77.70;;;4.86;66.03;93565.63;5014575;28;20201;-36
2023/01/09 00:59:03;;;;;;;0.70;0.70;;;5.90;77.70;;;4.86;65.83;93552.63;5015155;28;20619;-36
2023/01/09 01:01:30;;;;;;;0.80;0.80;;;5.90;78.60;;;4.86;66.02;93550.84;5014036;28;20623;-35
2023/01/09 01:03:57;;;;;;;0.80;0.80;;;5.90;77.80;;;4.87;65.97;93549.06;5015475;28;20198;-36
2023/01/09 01:09:24;;;;;;;0.70;0.70;;;5.80;77.70;;;4.83;65.69;93538.22;5003723;28;20201;-35
2023/01/09 01:11:51;;;;;;;0.80;0.80;;;5.90;77.80;;;4.84;65.95;93542.44;5014854;28;20608;-36
2023/01/09 01:14:18;;;;;;;0.68;0.68;;;5.90;77.80;;;4.84;66.22;93544.25;5015106;28;20189;-35
2023/01/09 01:16:45;;;;;;;0.70;0.70;;;5.80;77.70;;;4.83;65.93;93538.22;5014946;28;20263;-36
2023/01/09 01:19:12;;;;;;;0.70;0.70;;;5.90;77.80;;;4.79;66.00;93544.81;5015249;28;20512;-36
2023/01/09 01:21:39;;;;;;;0.70;0.70;;;5.80;77.80;;;4.80;66.07;93544.63;5030217;28;20637;-36
2023/01/09 01:24:06;;;;;;;0.60;0.60;;;5.90;77.90;;;4.82;66.14;93554.81;5015185;28;20247;-36
2023/01/09 01:26:33;;;;;;;0.70;0.70;;;5.90;77.90;;;4.84;66.03;93549.44;5015237;28;20233;-37
2023/01/09 01:29:00;;;;;;;0.60;0.60;;;5.90;77.90;;;4.85;66.06;93546.66;5014957;28;20186;-36
2023/01/09 01:31:27;;;;;;;0.70;0.70;;;5.90;77.90;;;4.86;66.04;93552.63;5014685;28;20256;-36
2023/01/09 01:33:56;;;;;;;0.88;0.88;;;5.90;77.90;;;4.88;66.33;93548.88;5015101;28;20538;-38
2023/01/09 01:36:23;;;;;;;0.82;0.82;;;5.90;77.90;;;4.89;66.13;93554.88;5014222;28;20582;-35
2023/01/09 01:38:50;;;;;;;0.80;0.80;;;5.90;78.00;;;4.88;66.19;93551.47;5014879;28;20189;-35
2023/01/09 01:41:28;;;;;;;0.70;0.70;;;5.90;77.90;;;4.89;66.60;93555.66;5014610;28;20217;-35
2023/01/09 01:44:01;;;;;;;0.70;0.70;;;5.90;77.90;;;4.92;66.08;93549.28;5014822;28;20221;-35
2023/01/09 01:46:30;;;;;;;0.70;0.70;;;5.90;78.00;;;4.93;66.00;93533.50;5014709;28;20256;-35
2023/01/09 01:49:09;;;;;;;0.70;0.70;;;6.00;78.10;;;4.94;66.07;93531.72;5014685;28;20260;-35
2023/01/09 01:51:43;;;;;;;0.70;0.70;;;6.00;78.90;;;4.95;66.21;93523.72;5014392;28;20191;-39
2023/01/09 01:54:21;;;;;;;0.77;0.77;;;6.00;78.10;;;4.97;66.22;93523.53;5018409;28;20170;-35
2023/01/09 01:56:55;;;;;;;0.70;0.70;;;6.00;78.00;;;5.00;66.00;93519.75;5034033;28;20209;-35
2023/01/09 01:59:27;;;;;;;0.70;0.70;;;6.00;78.10;;;5.01;66.07;93516.97;5018233;28;20185;-35
2023/01/09 02:01:59;;;;;;;0.80;0.80;;;6.00;78.00;;;5.02;66.64;93515.19;5018237;28;20257;-37
2023/01/09 02:04:28;;;;;;;0.70;0.70;;;6.00;78.00;;;5.04;66.07;93514.00;5018082;28;20186;-36
2023/01/09 02:06:57;;;;;;;0.70;0.70;;;6.00;78.00;;;5.08;66.24;93511.81;5017284;28;20617;-37
2023/01/09 02:09:25;;;;;;;0.70;0.70;;;6.10;78.10;;;5.07;66.24;93492.00;5017628;28;20194;-37
2023/01/09 02:11:56;;;;;;;0.70;0.70;;;6.10;78.10;;;5.09;66.28;93485.63;5017826;28;20201;-35
2023/01/09 02:14:27;;;;;;;0.75;0.75;;;6.10;78.10;;;5.12;66.04;93476.63;5018090;28;20182;-36
2023/01/09 02:17:19;;;;;;;0.70;0.70;;;6.10;78.10;;;5.12;66.35;93461.03;5017098;28;20225;-36
2023/01/09 02:20:22;;;;;;;0.70;0.70;;;6.10;78.10;;;5.12;66.24;93450.66;5017266;28;20186;-35
2023/01/09 02:23:20;;;;;;;0.80;0.80;;;6.10;78.10;;;5.08;66.02;93433.84;5017227;28;20576;-35
2023/01/09 02:26:11;;;;;;;0.80;0.80;;;6.10;78.00;;;5.08;66.32;93436.44;5017517;28;20292;-36
2023/01/09 02:29:19;;;;;;;0.80;0.80;;;6.10;78.00;;;5.08;66.34;93423.44;5017680;28;20185;-35
2023/01/09 02:31:58;;;;;;;0.70;0.70;;;6.10;78.00;;;5.07;66.43;93414.06;5016670;28;20196;-36
2023/01/09 02:34:32;;;;;;;0.70;0.70;;;6.10;78.10;;;5.06;66.34;93407.25;5017561;28;20177;-37
2023/01/09 02:37:24;;;;;;;0.80;0.80;;;6.10;78.00;;;5.06;66.25;93407.25;5017049;28;20198;-35
2023/01/09 02:40:24;;;;;;;0.70;0.70;;;6.10;78.00;;;5.04;66.27;93398.84;5016639;28;20185;-35
2023/01/09 02:42:54;;;;;;;0.80;0.80;;;6.10;78.10;;;5.02;66.48;93391.25;5017260;28;20185;-36
2023/01/09 02:45:21;;;;;;;0.70;0.70;;;6.10;78.00;;;5.02;66.48;93395.66;5016564;28;20213;-35
2023/01/09 02:47:48;;;;;;;0.80;0.80;;;6.10;78.00;;;5.02;66.72;93395.66;5017556;28;20248;-36
2023/01/09 02:50:32;;;;;;;0.70;0.70;;;6.10;78.10;;;5.02;66.71;93399.03;5017383;28;20185;-36
2023/01/09 02:53:05;;;;;;;0.70;0.70;;;6.10;78.20;;;5.03;66.65;93392.84;5017501;28;20534;-35
2023/01/09 02:56:05;;;;;;;0.80;0.80;;;6.10;78.10;;;5.03;66.58;93387.66;5017251;28;20182;-36
2023/01/09 02:59:09;;;;;;;0.80;0.80;;;6.10;78.20;;;5.02;66.87;93393.06;5017244;28;20185;-35
2023/01/09 03:02:00;;;;;;;0.70;0.70;;;6.10;78.30;;;5.03;66.76;93397.22;5016218;28;20181;-37
2023/01/09 03:05:28;;;;;;;0.70;0.70;;;6.10;78.30;;;5.02;66.78;93385.25;5016813;28;20186;-35
2023/01/09 03:08:03;;;;;;;0.90;0.90;;;6.10;78.30;;;5.04;66.94;93386.66;4999863;28;20189;-36
2023/01/09 03:10:53;;;;;;;0.70;0.70;;;6.10;78.20;;;5.05;66.78;93396.03;5016408;28;20542;-39
2023/01/09 03:13:24;;;;;;;0.70;0.70;;;6.10;78.30;;;5.08;66.93;93387.88;5016985;28;20265;-40
2023/01/09 03:15:55;;;;;;;0.80;0.80;;;6.10;78.20;;;5.10;66.83;93391.06;5017079;28;20551;-38
2023/01/09 03:18:26;;;;;;;0.70;0.70;;;6.10;78.30;;;5.15;66.92;93384.47;5016748;28;20660;-44
2023/01/09 03:20:54;;;;;;;0.70;0.70;;;6.20;78.30;;;5.17;66.79;93382.50;5016738;28;20181;-40
2023/01/09 03:23:22;;;;;;;0.70;0.70;;;6.20;78.30;;;5.20;66.67;93390.69;5015807;28;20245;-45
2023/01/09 03:25:49;;;;;;;0.80;0.80;;;6.20;78.30;;;5.24;66.77;93388.50;5032019;28;20256;-48
2023/01/09 03:28:28;;;;;;;0.70;0.70;;;6.20;78.40;;;5.26;66.77;93384.72;5016666;28;20249;-47
2023/01/09 03:30:55;;;;;;;0.70;0.70;;;6.20;78.40;;;5.28;66.57;93376.72;5016404;28;20178;-39
2023/01/09 03:33:23;;;;;;;0.70;0.70;;;6.20;78.30;;;5.30;66.60;93364.31;5016407;28;20625;-39
2023/01/09 03:35:50;;;;;;;0.70;0.70;;;6.30;78.40;;;5.32;66.76;93356.31;5016434;28;20198;-38
2023/01/09 03:38:17;;;;;;;0.80;0.80;;;6.30;78.40;;;5.31;66.50;93355.53;5016344;28;20197;-39
2023/01/09 03:40:44;;;;;;;0.70;0.70;;;6.30;78.30;;;5.33;66.64;93361.31;5016153;28;20208;-39
2023/01/09 03:43:11;;;;;;;0.90;0.90;;;6.30;78.40;;;5.34;66.62;93354.34;5016311;28;20633;-38
2023/01/09 03:45:38;;;;;;;0.70;0.70;;;6.30;78.40;;;5.33;66.50;93348.31;5016182;28;20272;-41
2023/01/09 03:48:05;;;;;;;0.80;0.80;;;6.40;78.40;;;5.36;66.72;93349.72;5016193;28;20189;-40
2023/01/09 03:50:32;;;;;;;0.90;0.90;;;6.40;78.40;;;5.36;66.68;93347.94;5015139;28;20197;-39
2023/01/09 03:52:59;;;;;;;0.70;0.70;;;6.40;78.30;;;5.38;66.45;93345.13;5016100;28;20196;-39
2023/01/09 03:55:27;;;;;;;0.80;0.80;;;6.40;78.40;;;5.38;66.74;93345.13;5016089;28;20529;-38
2023/01/09 03:57:54;;;;;;;0.70;0.70;;;6.40;78.40;;;5.39;66.65;93346.72;5016012;28;20202;-39
2023/01/09 04:00:21;;;;;;;0.73;0.73;;;6.40;78.40;;;5.41;66.60;93336.94;5016223;28;20212;-38
2023/01/09 04:02:49;;;;;;;0.80;0.80;;;6.40;78.30;;;5.43;66.70;93334.94;5015805;28;20193;-40
2023/01/09 04:05:16;;;;;;;0.80;0.80;;;6.40;78.40;;;5.43;66.58;93327.94;5015830;28;20233;-39
2023/01/09 04:07:43;;;;;;;0.80;0.80;;;6.40;78.40;;;5.45;66.54;93330.34;5016080;28;20348;-39
2023/01/09 04:10:11;;;;;;;0.80;0.80;;;6.40;78.30;;;5.45;66.60;93327.72;5015845;28;20193;-39
2023/01/09 04:12:38;;;;;;;0.70;0.70;;;6.40;78.40;;;5.47;66.54;93338.75;5015615;28;20193;-39
2023/01/09 04:15:06;;;;;;;0.80;0.80;;;6.40;78.30;;;5.49;66.67;93335.94;5015034;28;20493;-41
2023/01/09 04:17:33;;;;;;;0.80;0.80;;;6.50;78.40;;;5.49;66.69;93341.94;5015895;28;20209;-44
2023/01/09 04:20:00;;;;;;;0.70;0.70;;;6.50;78.30;;;5.50;66.55;93343.53;5015915;28;20197;-39
2023/01/09 04:22:27;;;;;;;0.70;0.70;;;6.50;78.40;;;5.50;66.41;93345.34;5015839;28;20220;-40
2023/01/09 04:24:54;;;;;;;0.80;0.80;;;6.50;78.30;;;5.48;66.53;93345.56;5015855;28;20198;-41
2023/01/09 04:27:21;;;;;;;0.80;0.80;;;6.50;78.30;;;5.48;66.53;93347.34;5015495;28;20205;-39
2023/01/09 04:29:48;;;;;;;0.70;0.70;;;6.50;78.30;;;5.48;66.57;93335.16;5015495;28;20189;-39
2023/01/09 04:32:15;;;;;;;0.70;0.70;;;6.50;78.30;;;5.50;66.50;93333.13;5015453;28;20535;-40
2023/01/09 04:34:42;;;;;;;0.70;0.70;;;6.50;78.30;;;5.51;66.59;93323.56;5014737;28;20525;-40
2023/01/09 04:37:09;;;;;;;0.70;0.70;;;6.50;78.30;;;5.52;66.80;93309.56;5015267;28;20537;-39
2023/01/09 04:39:36;;;;;;;0.80;0.80;;;6.50;78.30;;;5.52;66.49;93309.56;5015377;28;20189;-39
2023/01/09 04:42:03;;;;;;;0.70;0.70;;;6.50;78.40;;;5.53;66.58;93311.13;5015382;28;20193;-41
2023/01/09 04:44:30;;;;;;;0.70;0.70;;;6.50;78.30;;;5.53;66.85;93304.13;5015315;28;20202;-42
2023/01/09 04:46:57;;;;;;;0.80;0.80;;;6.50;78.40;;;5.53;66.78;93300.72;5015339;28;20232;-40
2023/01/09 04:49:25;;;;;;;0.80;0.80;;;6.50;78.40;;;5.51;66.75;93308.72;5015299;28;20185;-40
2023/01/09 04:51:52;;;;;;;0.80;0.80;;;6.50;78.30;;;5.52;66.63;93296.56;5015287;28;20190;-42
2023/01/09 04:54:20;;;;;;;0.70;0.70;;;6.50;78.30;;;5.53;66.52;93283.34;5015686;28;20284;-42
2023/01/09 04:56:48;;;;;;;0.70;0.70;;;6.60;78.40;;;5.54;66.62;93289.31;5014445;28;20571;-43
2023/01/09 04:59:15;;;;;;;0.80;0.80;;;6.50;78.40;;;5.54;66.72;93297.13;5015427;28;20536;-42
2023/01/09 05:01:43;;;;;;;0.70;0.70;;;6.50;78.40;;;5.54;66.76;93300.53;5015106;28;20204;-43
2023/01/09 05:04:10;;;;;;;0.70;0.70;;;6.60;78.50;;;5.55;66.83;93299.53;5015045;28;20589;-42
2023/01/09 05:06:37;;;;;;;0.80;0.80;;;6.60;78.50;;;5.56;66.56;93297.75;5014003;28;20280;-40
2023/01/09 05:09:05;;;;;;;0.70;0.70;;;6.60;78.40;;;5.55;66.54;93299.53;5015008;28;20202;-42
2023/01/09 05:11:32;;;;;;;0.70;0.70;;;6.60;78.40;;;5.56;66.62;93301.13;5015041;28;20209;-43
2023/01/09 05:13:59;;;;;;;0.80;0.80;;;6.60;78.40;;;5.57;66.67;93296.75;5015137;28;20209;-44
2023/01/09 05:16:26;;;;;;;0.70;0.70;;;6.60;78.40;;;5.59;66.85;93308.53;5013973;28;20201;-42
2023/01/09 05:18:55;;;;;;;0.70;0.70;;;6.60;78.40;;;5.59;66.76;93303.34;5015227;28;20209;-48
2023/01/09 05:21:23;;;;;;;0.60;0.60;;;6.60;78.50;;;5.62;66.59;93309.94;5015367;28;20200;-45
2023/01/09 05:23:50;;;;;;;0.70;0.70;;;6.60;78.50;;;5.64;66.44;93314.94;5014924;28;20208;-40
2023/01/09 05:26:22;;;;;;;0.70;0.70;;;6.60;78.50;;;5.68;66.90;93311.72;5016300;28;20657;-39
2023/01/09 05:28:55;;;;;;;0.70;0.70;;;6.60;78.50;;;5.70;66.76;93316.72;5019325;28;20182;-42
2023/01/09 05:31:24;;;;;;;0.70;0.70;;;6.60;78.50;;;5.72;66.69;93314.72;5019057;28;20182;-38
2023/01/09 05:33:52;;;;;;;0.70;0.70;;;6.60;78.50;;;5.73;66.39;93314.53;5018948;28;20224;-38
2023/01/09 05:36:19;;;;;;;0.70;0.70;;;6.60;78.50;;;5.76;66.58;93326.31;5018519;28;20216;-38
2023/01/09 05:38:46;;;;;;;0.80;0.80;;;6.70;78.60;;;5.79;66.71;93325.94;5018779;28;20248;-38
2023/01/09 05:41:13;;;;;;;0.70;0.70;;;6.70;78.50;;;5.79;66.33;93328.53;5018827;28;20205;-38
2023/01/09 05:43:40;;;;;;;0.80;0.80;;;6.70;78.60;;;5.82;66.44;93338.53;5017931;28;20523;-38
2023/01/09 05:46:08;;;;;;;0.70;0.70;;;6.70;78.60;;;5.83;66.54;93345.34;5018464;28;20264;-39
2023/01/09 05:48:35;;;;;;;0.80;0.80;;;6.70;78.60;;;5.84;66.54;93341.75;5018462;28;20193;-38
2023/01/09 05:51:02;;;;;;;0.70;0.70;;;6.80;78.60;;;5.87;66.46;93351.75;5018676;28;20190;-39
2023/01/09 05:53:29;;;;;;;0.80;0.80;;;6.80;78.60;;;5.87;66.47;93356.97;5018588;28;20224;-39
2023/01/09 05:55:56;;;;;;;0.82;0.82;;;6.80;78.60;;;5.89;66.47;93360.13;5018147;28;20205;-39
2023/01/09 05:58:23;;;;;;;0.60;0.60;;;6.80;78.50;;;5.88;66.48;93357.75;5019001;28;20562;-39
2023/01/09 06:00:52;;;;;;;0.70;0.70;;;6.80;78.50;;;5.86;66.56;93370.16;5018204;28;20633;-38
2023/01/09 06:03:19;;;;;;;0.70;0.70;;;6.80;78.50;;;5.87;66.39;93379.56;5017297;28;20280;-39
2023/01/09 06:05:46;;;;;;;0.80;0.80;;;6.80;78.50;;;5.82;66.67;93381.97;5017913;28;20213;-39
2023/01/09 06:08:13;;;;;;;0.70;0.70;;;6.80;78.40;;;5.78;66.50;93391.97;5018072;28;20200;-39
2023/01/09 06:10:40;;;;;;;0.70;0.70;;;6.80;78.40;;;5.75;66.54;93392.38;5018024;28;20197;-38
2023/01/09 06:13:07;;;;;;;0.80;0.80;;;6.80;78.40;;;5.73;66.74;93391.78;5018213;28;20569;-40
2023/01/09 06:15:35;;;;;;;0.70;0.70;;;6.70;78.40;;;5.71;66.76;93393.78;5017304;28;20272;-39
2023/01/09 06:18:03;;;;;;;0.70;0.70;;;6.70;78.40;;;5.69;66.54;93386.16;5016977;28;20193;-39
2023/01/09 06:20:31;;;;;;;0.70;0.70;;;6.70;78.50;;;5.69;66.56;93390.56;5017816;28;20186;-40
2023/01/09 06:22:58;;;;;;;0.70;0.70;;;6.70;78.50;;;5.70;66.66;93392.16;5017851;28;20683;-39
2023/01/09 06:25:25;;;;;;;0.80;0.80;;;6.70;78.50;;;5.70;66.38;93389.56;5017763;28;20260;-39
2023/01/09 06:27:52;;;;;;;0.70;0.70;;;6.70;78.50;;;5.70;66.73;93392.16;5017580;28;20697;-41
2023/01/09 06:30:20;;;;;;;0.60;0.60;;;6.70;78.50;;;5.70;66.62;93386.97;5017639;28;20207;-41
2023/01/09 06:32:49;;;;;;;0.70;0.70;;;6.70;78.50;;;5.68;66.68;93397.56;5000452;28;20620;-39
2023/01/09 06:35:21;;;;;;;0.75;0.75;;;6.60;78.40;;;5.69;66.60;93390.56;5017586;28;20212;-39
2023/01/09 06:37:48;;;;;;;0.70;0.70;;;6.70;78.40;;;5.68;66.37;93401.97;5016909;28;20196;-40
2023/01/09 06:40:18;;;;;;;0.70;0.70;;;6.70;78.50;;;5.66;66.51;93393.56;5017470;28;20189;-41
2023/01/09 06:42:46;;;;;;;0.70;0.70;;;6.60;78.40;;;5.65;66.53;93397.16;5016787;28;20178;-40
2023/01/09 06:45:14;;;;;;;0.80;0.80;;;6.60;78.30;;;5.63;66.56;93399.16;5017534;28;20515;-44
2023/01/09 06:47:41;;;;;;;0.70;0.70;;;6.60;78.40;;;5.62;66.70;93398.38;5017148;28;20721;-35
2023/01/09 06:50:10;;;;;;;0.80;0.80;;;6.60;78.40;;;5.58;66.59;93400.56;5017295;28;20193;-38
2023/01/09 06:52:38;;;;;;;0.80;0.80;;;6.60;78.40;;;5.57;66.57;93409.34;5017617;28;20284;-40
2023/01/09 06:55:06;;;;;;;0.70;0.70;;;6.60;78.40;;;5.53;66.89;93402.16;5017229;28;20565;-42
2023/01/09 06:57:33;;;;;;;0.80;0.80;;;6.50;78.40;;;5.51;66.67;93404.16;5016989;28;20201;-35
2023/01/09 07:00:00;;;;;;;0.80;0.80;;;6.50;78.40;;;5.49;66.82;93401.75;5017211;28;20201;-36
2023/01/09 07:02:27;;;;;;;0.70;0.70;;;6.50;78.40;;;5.49;66.75;93400.94;5017356;28;20530;-36
2023/01/09 07:04:54;;;;;;;0.80;0.80;;;6.50;78.50;;;5.51;66.71;93398.97;5017044;28;20259;-36
2023/01/09 07:07:22;;;;;;;0.70;0.70;;;6.50;78.50;;;5.50;66.94;93400.75;5016987;28;20236;-48
2023/01/09 07:09:49;;;;;;;0.70;0.70;;;6.50;78.50;;;5.52;66.61;93406.56;5016994;28;20201;-42
2023/01/09 07:12:16;;;;;;;0.70;0.70;;;6.50;78.50;;;5.53;66.63;93415.16;5016869;28;20628;-37
2023/01/09 07:14:43;;;;;;;0.70;0.70;;;6.50;78.50;;;5.51;66.68;93415.34;5016185;28;20197;-41
2023/01/09 07:17:12;;;;;;;0.80;0.80;;;6.50;78.60;;;5.52;66.87;93414.34;5016794;28;20208;-35
2023/01/09 07:19:40;;;;;;;0.75;0.75;;;6.50;78.60;;;5.53;66.79;93418.56;5017067;28;20205;-41
2023/01/09 07:22:09;;;;;;;0.70;0.70;;;6.50;78.60;;;5.54;66.95;93424.56;5016667;28;20224;-35
2023/01/09 07:24:36;;;;;;;0.70;0.70;;;6.50;78.60;;;5.55;66.79;93426.16;5016144;28;20209;-41
2023/01/09 07:27:03;;;;;;;0.60;0.60;;;6.50;78.50;;;5.56;66.84;93425.16;5016472;28;20237;-35
2023/01/09 07:29:30;;;;;;;0.80;0.80;;;6.50;78.50;;;5.58;66.59;93423.19;5016923;28;20525;-37
2023/01/09 07:31:58;;;;;;;0.70;0.70;;;6.50;78.50;;;5.58;66.83;93426.56;5016523;28;20221;-36
2023/01/09 07:34:25;;;;;;;0.70;0.70;;;6.50;78.50;;;5.61;66.80;93433.19;5016667;28;20248;-40
2023/01/09 07:36:52;;;;;;;0.80;0.80;;;6.50;78.50;;;5.61;66.59;93423.59;5016330;28;20197;-36
2023/01/09 07:39:19;;;;;;;0.80;0.80;;;6.60;78.60;;;5.63;66.75;93430.38;5016611;28;20209;-38
2023/01/09 07:41:46;;;;;;;0.70;0.70;;;6.60;78.50;;;5.61;66.52;93425.38;5016313;28;20201;-38
2023/01/09 07:44:15;;;;;;;0.80;0.80;;;6.60;78.50;;;5.60;66.46;93434.16;5031793;28;20211;-36
2023/01/09 07:46:42;;;;;;;0.80;0.80;;;6.60;78.50;;;5.58;66.78;93447.38;5016019;28;20249;-35
2023/01/09 07:49:10;;;;;;;0.70;0.70;;;6.60;78.40;;;5.54;66.48;93450.56;5016209;28;20185;-39
2023/01/09 07:51:41;;;;;;;0.70;0.70;;;6.60;78.40;;;5.48;66.66;93459.97;5016307;28;20251;-49
2023/01/09 07:54:10;;;;;;;0.70;0.70;;;6.60;78.30;;;5.41;66.70;93459.94;5016133;28;20561;-46
2023/01/09 07:56:39;;;;;;;0.70;0.70;;;6.60;78.30;;;5.38;66.71;93465.53;5016003;28;20193;-36
2023/01/09 07:59:06;;;;;;;0.88;0.88;;;6.60;78.20;;;5.35;66.91;93465.13;5016645;28;20221;-40
2023/01/09 08:01:33;;;;;;;0.80;0.80;;;6.60;78.20;;;5.33;66.78;93457.50;5016086;28;20209;-38
2023/01/09 08:04:01;;;;;;;0.80;0.80;;;6.50;78.20;;;5.34;66.73;93458.31;5015962;28;20201;-36
2023/01/09 08:06:29;;;;;;;0.70;0.70;;;6.50;78.20;;;5.33;66.71;93464.50;5015647;28;20606;-36
2023/01/09 08:08:56;;;;;;;0.80;0.80;;;6.40;78.10;;;5.31;66.62;93475.13;5016101;28;20201;-36
2023/01/09 08:11:24;;;;;;;0.80;0.80;;;6.50;78.20;;;5.32;67.13;93481.09;5016066;28;20194;-36
2023/01/09 08:13:51;;;;;;;0.70;0.70;;;6.40;78.30;;;5.34;66.89;93473.91;5016023;28;20197;-35
2023/01/09 08:16:19;;;;;;;0.80;0.80;;;6.40;78.40;;;5.38;67.13;93468.16;5031042;28;20232;-36
2023/01/09 08:18:46;;;;;;;0.70;0.70;;;6.40;78.40;;;5.42;67.10;93478.94;5015707;28;20197;-42
2023/01/09 08:21:13;;;;;;;0.70;0.70;;;6.40;78.50;;;5.43;67.11;93470.97;5015642;28;20564;-35
2023/01/09 08:23:40;;;;;;;0.70;0.70;;;6.50;78.60;;;5.50;67.06;93473.56;5015790;28;20533;-38
2023/01/09 08:26:07;;;;;;;0.70;0.70;;;6.50;78.60;;;5.56;67.11;93477.97;5015338;28;20233;-41
2023/01/09 08:28:34;;;;;;;0.80;0.80;;;6.50;78.70;;;5.63;67.13;93487.59;5015777;28;20189;-38
2023/01/09 08:31:01;;;;;;;0.70;0.70;;;6.50;78.80;;;5.72;67.06;93499.44;5015567;28;20197;-37
2023/01/09 08:33:28;;;;;;;0.70;0.70;;;6.60;79.00;;;5.80;67.17;93498.44;5015485;28;20196;-36
2023/01/09 08:35:55;;;;;;;0.80;0.80;;;6.60;79.00;;;5.88;67.21;93499.06;5015468;28;20624;-36
2023/01/09 08:38:22;;;;;;;0.70;0.70;;;6.70;79.10;;;5.98;67.27;93506.50;5015233;28;20727;-43
2023/01/09 08:40:49;;;;;;;0.80;0.80;;;6.80;79.20;;;6.05;67.05;93509.13;5015642;28;20204;-40
2023/01/09 08:48:48;;;;;;;0.65;0.65;;;7.00;79.20;;;6.30;67.19;93522.38;5015306;28;20188;-36
2023/01/09 08:51:15;;;;;;;0.70;0.70;;;7.10;79.20;;;6.42;66.94;93530.41;5015273;28;20213;-36
2023/01/09 08:53:42;;;;;;;0.70;0.70;;;7.20;79.30;;;6.48;66.91;93531.38;5015286;28;20197;-36
2023/01/09 08:56:09;;;;;;;0.80;0.80;;;7.20;79.20;;;6.54;66.74;93534.00;5015449;28;20223;-36
2023/01/09 08:58:36;;;;;;;0.80;0.80;;;7.30;79.10;;;6.62;66.63;93534.81;5015108;28;20203;-36
2023/01/09 09:01:07;;;;;;;0.80;0.80;;;7.30;78.90;;;6.68;66.51;93536.59;5014773;28;20197;-36
2023/01/09 09:03:34;;;;;;;0.70;0.70;;;7.50;79.00;;;6.75;66.40;93550.44;5015445;28;20221;-38
2023/01/09 09:06:01;;;;;;;0.70;0.70;;;7.50;79.80;;;6.83;66.37;93552.81;5014270;28;20193;-35
2023/01/09 09:08:29;;;;;;;0.70;0.70;;;7.60;79.10;;;6.91;66.28;93536.19;5014362;28;20249;-35
2023/01/09 09:10:56;;;;;;;0.70;0.70;;;7.60;78.90;;;6.97;66.15;93542.34;5015072;28;20190;-36
2023/01/09 09:13:23;;;;;;;0.80;0.80;;;7.70;78.90;;;7.04;66.20;93540.53;5015031;28;20271;-36
2023/01/09 09:15:50;;;;;;;0.70;0.70;;;7.70;79.00;;;7.13;66.16;93547.16;5015000;28;20189;-37
2023/01/09 09:18:17;;;;;;;0.70;0.70;;;7.80;79.00;;;7.18;66.35;93549.94;5014874;28;20200;-37
2023/01/09 09:20:44;;;;;;;0.70;0.70;;;7.80;79.00;;;7.27;66.07;93549.72;5014135;28;20526;-36
2023/01/09 09:23:11;;;;;;;0.70;0.70;;;7.90;78.70;;;7.32;66.00;93555.94;5014968;28;20654;-37
2023/01/09 09:25:38;;;;;;;0.70;0.70;;;7.90;78.90;;;7.35;66.01;93552.91;5014864;28;20763;-36
2023/01/09 09:28:06;;;;;;;0.68;0.68;;;8.00;78.90;;;7.41;65.95;93561.72;5013778;28;20214;-39
2023/01/09 09:30:33;;;;;;;0.70;0.70;;;8.00;78.80;;;7.42;65.82;93570.34;5015113;28;20197;-37
2023/01/09 09:33:04;;;;;;;0.70;0.70;;;8.10;78.80;;;7.48;65.94;93572.94;5014808;28;20190;-37
2023/01/09 09:35:32;;;;;;;0.70;0.70;;;8.10;78.90;;;7.51;65.82;93564.69;5015129;28;20209;-38
2023/01/09 09:38:02;;;;;;;0.70;0.70;;;8.10;78.90;;;7.58;65.68;93567.28;5014871;28;20194;-38
2023/01/09 09:40:52;;;;;;;0.90;0.90;;;8.20;79.10;;;7.64;66.14;93574.28;5015020;28;20185;-40
2023/01/09 09:47:04;;;;;;;0.70;0.70;;;8.30;79.10;;;7.74;66.17;93570.44;5014760;28;20609;-43
2023/01/09 09:50:14;;;;;;;0.70;0.70;;;8.40;79.10;;;7.81;66.28;93576.41;5014698;28;20201;-38
2023/01/09 09:52:47;;;;;;;0.70;0.70;;;8.50;79.20;;;7.88;66.36;93574.59;5014621;28;20193;-39
2023/01/09 09:55:39;;;;;;;0.70;0.70;;;8.50;79.20;;;7.93;66.36;93573.97;5014658;28;20519;-38
2023/01/09 09:58:48;;;;;;;0.70;0.70;;;8.50;79.20;;;7.96;66.38;93571.75;5007985;28;20267;-39
2023/01/09 10:01:22;;;;;;;0.70;0.70;;;8.60;79.50;;;8.04;66.56;93575.91;5014587;28;20193;-39
2023/01/09 10:03:57;;;;;;;0.70;0.70;;;8.70;79.60;;;8.11;66.89;93568.06;5014718;28;20189;-38
2023/01/09 10:06:32;;;;;;;0.70;0.70;;;8.70;79.60;;;8.19;66.56;93567.81;5014852;28;20497;-41
2023/01/09 10:09:17;;;;;;;0.70;0.70;;;8.80;79.60;;;8.24;66.59;93570.59;5014455;28;20192;-42
2023/01/09 10:12:12;;;;;;;0.80;0.80;;;8.80;79.70;;;8.30;66.63;93569.75;5014678;28;20185;-41
2023/01/09 10:14:39;;;;;;;0.80;0.80;;;8.80;79.60;;;8.40;66.70;93582.34;5018164;28;20525;-36
2023/01/09 10:17:37;;;;;;;0.70;0.70;;;9.00;79.80;;;8.49;66.35;93572.47;5018304;28;20197;-39
2023/01/09 10:20:32;;;;;;;0.60;0.60;;;9.00;79.60;;;8.59;66.49;93577.22;5018022;28;20509;-42
2023/01/09 10:23:47;;;;;;;0.70;0.70;;;9.10;79.70;;;8.69;66.26;93574.94;5018667;28;20272;-45
2023/01/09 10:26:17;;;;;;;0.80;0.80;;;9.20;79.70;;;8.74;66.04;93582.94;4957967;29;20239;-40
2023/01/09 10:29:03;;;;;;;0.80;0.80;;;9.30;79.50;;;8.80;65.53;93591.72;4957542;29;20215;-41
2023/01/09 10:31:59;;;;;;;0.80;0.80;;;9.30;78.80;;;8.85;65.75;93580.63;4996022;28;20208;-36
2023/01/09 10:34:44;;;;;;;0.70;0.70;;;9.40;79.10;;;8.89;65.67;93577.38;5017970;28;20489;-41
2023/01/09 10:37:35;;;;;;;0.70;0.70;;;9.50;79.20;;;8.97;65.47;93578.91;5017556;28;20268;-37
2023/01/09 10:40:29;;;;;;;0.70;0.70;;;9.50;78.60;;;8.99;64.08;93589.19;5016598;28;20621;-36
2023/01/09 10:43:07;;;;;;;0.70;0.70;;;9.50;78.10;;;8.97;64.51;93592.81;5007341;28;20217;-38
2023/01/09 10:45:49;;;;;;;0.70;0.70;;;9.60;78.50;;;8.96;64.33;93593.81;5016803;28;20200;-43
2023/01/09 10:48:35;;;;;;;0.73;0.73;;;9.50;78.10;;;8.95;64.33;93589.59;5016505;28;20236;-45
2023/01/09 10:51:16;;;;;;;0.70;0.70;;;9.50;78.40;;;8.94;64.29;93590.59;5017351;28;20597;-44
2023/01/09 10:53:51;;;;;;;0.88;0.88;;;9.50;78.30;;;8.93;64.48;93586.38;5017552;28;20186;-39
2023/01/09 10:56:26;;;;;;;0.70;0.70;;;9.50;78.40;;;8.92;64.61;93584.81;5016416;28;20627;-39
2023/01/09 10:58:55;;;;;;;0.80;0.80;;;9.50;78.50;;;8.95;64.65;93597.44;5017229;28;20181;-41
2023/01/09 11:01:29;;;;;;;0.80;0.80;;;9.50;78.50;;;8.99;64.67;93595.22;5017413;28;20518;-48
2023/01/09 11:04:00;;;;;;;0.70;0.70;;;9.60;78.60;;;9.00;64.82;93599.44;5016759;28;20637;-36